sensor_id;sensor_type;location;lat;lon;timestamp;temperature;humidity
60701;DHT22;46541;49.894;10.886;2023-04-03T00:00:18;4.90;99.90
60701;DHT22;46541;49.894;10.886;2023-04-03T00:02:45;4.90;99.90
60701;DHT22;46541;49.894;10.886;2023-04-03T00:05:12;5.00;99.90
60701;DHT22;46541;49.894;10.886;2023-04-03T00:07:38;5.00;99.90
60701;DHT22;46541;49.894;10.886;2023-04-03T00:10:06;5.00;99.90
60701;DHT22;46541;49.894;10.886;2023-04-03T00:12:33;5.00;99.90
60701;DHT22;46541;49.894;10.886;2023-04-03T00:14:59;5.00;99.90
60701;DHT22;46541;49.894;10.886;2023-04-03T00:17:26;5.00;99.90
60701;DHT22;46541;49.894;10.886;2023-04-03T00:19:53;5.00;99.90
60701;DHT22;46541;49.894;10.886;2023-04-03T00:22:19;5.00;99.90
60701;DHT22;46541;49.894;10.886;2023-04-03T00:24:46;5.00;99.90
60701;DHT22;46541;49.894;10.886;2023-04-03T00:27:13;5.00;99.90
60701;DHT22;46541;49.894;10.886;2023-04-03T00:29:40;5.00;99.90
60701;DHT22;46541;49.894;10.886;2023-04-03T00:32:06;5.00;99.90
60701;DHT22;46541;49.894;10.886;2023-04-03T00:34:33;5.00;99.90
60701;DHT22;46541;49.894;10.886;2023-04-03T00:36:59;5.10;99.90
60701;DHT22;46541;49.894;10.886;2023-04-03T00:39:26;5.00;99.90
60701;DHT22;46541;49.894;10.886;2023-04-03T00:41:53;5.10;99.90
60701;DHT22;46541;49.894;10.886;2023-04-03T00:44:21;5.10;99.90
60701;DHT22;46541;49.894;10.886;2023-04-03T00:46:49;5.00;99.90
60701;DHT22;46541;49.894;10.886;2023-04-03T00:49:15;5.00;99.90
60701;DHT22;46541;49.894;10.886;2023-04-03T00:51:42;5.00;99.90
60701;DHT22;46541;49.894;10.886;2023-04-03T00:54:09;5.00;99.90
60701;DHT22;46541;49.894;10.886;2023-04-03T00:56:37;5.00;99.90
60701;DHT22;46541;49.894;10.886;2023-04-03T00:59:05;5.00;99.90
60701;DHT22;46541;49.894;10.886;2023-04-03T01:01:32;5.00;99.90
60701;DHT22;46541;49.894;10.886;2023-04-03T01:04:04;5.00;99.90
60701;DHT22;46541;49.894;10.886;2023-04-03T01:06:36;5.00;99.90
60701;DHT22;46541;49.894;10.886;2023-04-03T01:09:04;5.00;99.90
60701;DHT22;46541;49.894;10.886;2023-04-03T01:11:31;5.00;99.90
60701;DHT22;46541;49.894;10.886;2023-04-03T01:13:58;5.00;99.90
60701;DHT22;46541;49.894;10.886;2023-04-03T01:16:25;5.00;99.90
60701;DHT22;46541;49.894;10.886;2023-04-03T01:18:52;5.10;99.90
60701;DHT22;46541;49.894;10.886;2023-04-03T01:24:30;5.10;99.90
60701;DHT22;46541;49.894;10.886;2023-04-03T01:26:58;5.10;99.90
60701;DHT22;46541;49.894;10.886;2023-04-03T01:29:25;5.10;99.90
60701;DHT22;46541;49.894;10.886;2023-04-03T01:31:58;5.10;99.90
60701;DHT22;46541;49.894;10.886;2023-04-03T01:34:26;5.10;99.90
60701;DHT22;46541;49.894;10.886;2023-04-03T01:36:53;5.10;99.90
60701;DHT22;46541;49.894;10.886;2023-04-03T01:39:20;5.10;99.90
60701;DHT22;46541;49.894;10.886;2023-04-03T01:41:47;5.20;99.90
60701;DHT22;46541;49.894;10.886;2023-04-03T01:44:14;5.20;99.90
60701;DHT22;46541;49.894;10.886;2023-04-03T01:46:41;5.20;99.90
60701;DHT22;46541;49.894;10.886;2023-04-03T01:49:09;5.20;99.90
60701;DHT22;46541;49.894;10.886;2023-04-03T01:51:36;5.20;99.90
60701;DHT22;46541;49.894;10.886;2023-04-03T01:54:02;5.20;99.90
60701;DHT22;46541;49.894;10.886;2023-04-03T01:56:29;5.20;99.90
60701;DHT22;46541;49.894;10.886;2023-04-03T01:58:56;5.10;99.90
60701;DHT22;46541;49.894;10.886;2023-04-03T02:01:22;5.10;99.90
60701;DHT22;46541;49.894;10.886;2023-04-03T02:03:49;5.10;99.90
60701;DHT22;46541;49.894;10.886;2023-04-03T02:06:16;5.10;99.90
60701;DHT22;46541;49.894;10.886;2023-04-03T02:08:43;5.10;99.90
60701;DHT22;46541;49.894;10.886;2023-04-03T02:11:10;5.20;99.90
60701;DHT22;46541;49.894;10.886;2023-04-03T02:13:36;5.20;99.90
60701;DHT22;46541;49.894;10.886;2023-04-03T02:16:08;5.20;99.90
60701;DHT22;46541;49.894;10.886;2023-04-03T02:18:36;5.20;99.90
60701;DHT22;46541;49.894;10.886;2023-04-03T02:21:03;5.20;99.90
60701;DHT22;46541;49.894;10.886;2023-04-03T02:23:30;5.10;99.90
60701;DHT22;46541;49.894;10.886;2023-04-03T02:26:08;5.20;99.90
60701;DHT22;46541;49.894;10.886;2023-04-03T02:28:35;5.20;99.90
60701;DHT22;46541;49.894;10.886;2023-04-03T02:31:03;5.20;99.90
60701;DHT22;46541;49.894;10.886;2023-04-03T02:33:30;5.20;99.90
60701;DHT22;46541;49.894;10.886;2023-04-03T02:35:57;5.10;99.90
60701;DHT22;46541;49.894;10.886;2023-04-03T02:38:25;5.10;99.90
60701;DHT22;46541;49.894;10.886;2023-04-03T02:40:52;5.10;99.90
60701;DHT22;46541;49.894;10.886;2023-04-03T02:43:18;5.10;99.90
60701;DHT22;46541;49.894;10.886;2023-04-03T02:45:45;5.20;99.90
60701;DHT22;46541;49.894;10.886;2023-04-03T02:48:12;5.20;99.90
60701;DHT22;46541;49.894;10.886;2023-04-03T02:50:39;5.20;99.90
60701;DHT22;46541;49.894;10.886;2023-04-03T02:53:05;5.30;99.90
60701;DHT22;46541;49.894;10.886;2023-04-03T02:55:32;5.20;99.90
60701;DHT22;46541;49.894;10.886;2023-04-03T02:57:59;5.20;99.90
60701;DHT22;46541;49.894;10.886;2023-04-03T03:00:25;5.20;99.90
60701;DHT22;46541;49.894;10.886;2023-04-03T03:02:52;5.20;99.90
60701;DHT22;46541;49.894;10.886;2023-04-03T03:05:19;5.10;99.90
60701;DHT22;46541;49.894;10.886;2023-04-03T03:07:46;5.10;99.90
60701;DHT22;46541;49.894;10.886;2023-04-03T03:10:13;5.10;99.90
60701;DHT22;46541;49.894;10.886;2023-04-03T03:12:39;5.10;99.90
60701;DHT22;46541;49.894;10.886;2023-04-03T03:15:07;5.10;99.90
60701;DHT22;46541;49.894;10.886;2023-04-03T03:17:34;5.10;99.90
60701;DHT22;46541;49.894;10.886;2023-04-03T03:20:04;5.10;99.90
60701;DHT22;46541;49.894;10.886;2023-04-03T03:22:30;5.10;99.90
60701;DHT22;46541;49.894;10.886;2023-04-03T03:24:58;5.10;99.90
60701;DHT22;46541;49.894;10.886;2023-04-03T03:27:25;5.10;99.90
60701;DHT22;46541;49.894;10.886;2023-04-03T03:29:51;5.10;99.90
60701;DHT22;46541;49.894;10.886;2023-04-03T03:32:18;5.10;99.90
60701;DHT22;46541;49.894;10.886;2023-04-03T03:34:45;5.10;99.90
60701;DHT22;46541;49.894;10.886;2023-04-03T03:37:12;5.10;99.90
60701;DHT22;46541;49.894;10.886;2023-04-03T03:39:38;5.10;99.90
60701;DHT22;46541;49.894;10.886;2023-04-03T03:42:05;5.10;99.90
60701;DHT22;46541;49.894;10.886;2023-04-03T03:44:32;5.10;99.90
60701;DHT22;46541;49.894;10.886;2023-04-03T03:46:58;4.90;99.90
60701;DHT22;46541;49.894;10.886;2023-04-03T03:49:26;4.90;99.90
60701;DHT22;46541;49.894;10.886;2023-04-03T03:51:53;4.80;99.90
60701;DHT22;46541;49.894;10.886;2023-04-03T03:54:19;4.80;99.90
60701;DHT22;46541;49.894;10.886;2023-04-03T03:56:46;4.80;99.90
60701;DHT22;46541;49.894;10.886;2023-04-03T03:59:13;4.80;99.90
60701;DHT22;46541;49.894;10.886;2023-04-03T04:01:40;4.80;99.90
60701;DHT22;46541;49.894;10.886;2023-04-03T04:04:06;4.80;99.90
60701;DHT22;46541;49.894;10.886;2023-04-03T04:06:33;4.80;99.90
60701;DHT22;46541;49.894;10.886;2023-04-03T04:09:03;4.80;99.90
60701;DHT22;46541;49.894;10.886;2023-04-03T04:11:29;4.80;99.90
60701;DHT22;46541;49.894;10.886;2023-04-03T04:13:56;4.80;99.90
60701;DHT22;46541;49.894;10.886;2023-04-03T04:16:23;4.80;99.90
60701;DHT22;46541;49.894;10.886;2023-04-03T04:18:50;4.80;99.90
60701;DHT22;46541;49.894;10.886;2023-04-03T04:21:16;4.80;99.90
60701;DHT22;46541;49.894;10.886;2023-04-03T04:23:43;4.80;99.90
60701;DHT22;46541;49.894;10.886;2023-04-03T04:26:10;4.80;99.90
60701;DHT22;46541;49.894;10.886;2023-04-03T04:28:36;4.70;99.90
60701;DHT22;46541;49.894;10.886;2023-04-03T04:31:03;4.70;99.90
60701;DHT22;46541;49.894;10.886;2023-04-03T04:33:30;4.70;99.90
60701;DHT22;46541;49.894;10.886;2023-04-03T04:35:57;4.70;99.90
60701;DHT22;46541;49.894;10.886;2023-04-03T04:38:24;4.60;99.90
60701;DHT22;46541;49.894;10.886;2023-04-03T04:40:51;4.60;99.90
60701;DHT22;46541;49.894;10.886;2023-04-03T04:43:18;4.60;99.90
60701;DHT22;46541;49.894;10.886;2023-04-03T04:45:44;4.50;99.90
60701;DHT22;46541;49.894;10.886;2023-04-03T04:48:12;4.50;99.90
60701;DHT22;46541;49.894;10.886;2023-04-03T04:50:38;4.50;99.90
60701;DHT22;46541;49.894;10.886;2023-04-03T04:53:05;4.40;99.90
60701;DHT22;46541;49.894;10.886;2023-04-03T04:55:32;4.30;99.90
60701;DHT22;46541;49.894;10.886;2023-04-03T04:57:59;4.30;99.90
60701;DHT22;46541;49.894;10.886;2023-04-03T05:00:26;4.20;99.90
60701;DHT22;46541;49.894;10.886;2023-04-03T05:02:52;4.20;99.90
60701;DHT22;46541;49.894;10.886;2023-04-03T05:05:19;4.20;99.90
60701;DHT22;46541;49.894;10.886;2023-04-03T05:07:46;4.10;99.90
60701;DHT22;46541;49.894;10.886;2023-04-03T05:10:13;4.20;99.90
60701;DHT22;46541;49.894;10.886;2023-04-03T05:12:39;4.10;99.90
60701;DHT22;46541;49.894;10.886;2023-04-03T05:15:07;4.20;99.90
60701;DHT22;46541;49.894;10.886;2023-04-03T05:17:34;4.20;99.90
60701;DHT22;46541;49.894;10.886;2023-04-03T05:20:01;4.20;99.90
60701;DHT22;46541;49.894;10.886;2023-04-03T05:22:27;4.20;99.90
60701;DHT22;46541;49.894;10.886;2023-04-03T05:24:54;4.30;99.90
60701;DHT22;46541;49.894;10.886;2023-04-03T05:27:21;4.30;99.90
60701;DHT22;46541;49.894;10.886;2023-04-03T05:29:50;4.30;99.90
60701;DHT22;46541;49.894;10.886;2023-04-03T05:32:19;4.30;99.90
60701;DHT22;46541;49.894;10.886;2023-04-03T05:34:46;4.30;99.90
60701;DHT22;46541;49.894;10.886;2023-04-03T05:37:13;4.40;99.90
60701;DHT22;46541;49.894;10.886;2023-04-03T05:39:40;4.40;99.90
60701;DHT22;46541;49.894;10.886;2023-04-03T05:42:07;4.40;99.90
60701;DHT22;46541;49.894;10.886;2023-04-03T05:44:34;4.40;99.90
60701;DHT22;46541;49.894;10.886;2023-04-03T05:47:01;4.40;99.90
60701;DHT22;46541;49.894;10.886;2023-04-03T05:49:28;4.40;99.90
60701;DHT22;46541;49.894;10.886;2023-04-03T05:51:54;4.50;99.90
60701;DHT22;46541;49.894;10.886;2023-04-03T05:56:50;4.40;99.90
60701;DHT22;46541;49.894;10.886;2023-04-03T05:59:18;4.30;99.90
60701;DHT22;46541;49.894;10.886;2023-04-03T06:01:45;4.30;99.90
60701;DHT22;46541;49.894;10.886;2023-04-03T06:04:12;4.20;99.90
60701;DHT22;46541;49.894;10.886;2023-04-03T06:06:58;4.20;99.90
60701;DHT22;46541;49.894;10.886;2023-04-03T06:09:26;4.20;99.90
60701;DHT22;46541;49.894;10.886;2023-04-03T06:11:55;4.20;99.90
60701;DHT22;46541;49.894;10.886;2023-04-03T06:14:22;4.30;99.90
60701;DHT22;46541;49.894;10.886;2023-04-03T06:16:49;4.30;99.90
60701;DHT22;46541;49.894;10.886;2023-04-03T06:19:16;4.30;99.90
60701;DHT22;46541;49.894;10.886;2023-04-03T06:21:42;4.30;99.90
60701;DHT22;46541;49.894;10.886;2023-04-03T06:24:12;4.40;99.90
60701;DHT22;46541;49.894;10.886;2023-04-03T06:26:40;4.50;99.90
60701;DHT22;46541;49.894;10.886;2023-04-03T06:29:07;4.30;99.90
60701;DHT22;46541;49.894;10.886;2023-04-03T06:31:34;4.20;99.90
60701;DHT22;46541;49.894;10.886;2023-04-03T06:34:02;4.20;99.90
60701;DHT22;46541;49.894;10.886;2023-04-03T06:36:29;4.20;99.90
60701;DHT22;46541;49.894;10.886;2023-04-03T06:38:56;4.10;99.90
60701;DHT22;46541;49.894;10.886;2023-04-03T06:41:23;4.20;99.90
60701;DHT22;46541;49.894;10.886;2023-04-03T06:43:49;4.20;99.90
60701;DHT22;46541;49.894;10.886;2023-04-03T06:46:19;4.20;99.90
60701;DHT22;46541;49.894;10.886;2023-04-03T06:48:46;4.00;99.90
60701;DHT22;46541;49.894;10.886;2023-04-03T06:51:22;3.90;99.90
60701;DHT22;46541;49.894;10.886;2023-04-03T06:53:51;3.90;99.90
60701;DHT22;46541;49.894;10.886;2023-04-03T06:56:18;3.80;99.90
60701;DHT22;46541;49.894;10.886;2023-04-03T06:58:46;3.90;99.90
60701;DHT22;46541;49.894;10.886;2023-04-03T07:01:18;4.00;99.90
60701;DHT22;46541;49.894;10.886;2023-04-03T07:03:48;4.10;99.90
60701;DHT22;46541;49.894;10.886;2023-04-03T07:06:16;4.30;99.90
60701;DHT22;46541;49.894;10.886;2023-04-03T07:08:44;4.40;99.90
60701;DHT22;46541;49.894;10.886;2023-04-03T07:11:12;4.50;99.90
60701;DHT22;46541;49.894;10.886;2023-04-03T07:13:39;4.60;99.90
60701;DHT22;46541;49.894;10.886;2023-04-03T07:16:07;4.60;99.90
60701;DHT22;46541;49.894;10.886;2023-04-03T07:18:35;4.70;99.90
60701;DHT22;46541;49.894;10.886;2023-04-03T07:21:02;4.80;99.90
60701;DHT22;46541;49.894;10.886;2023-04-03T07:23:29;4.80;99.90
60701;DHT22;46541;49.894;10.886;2023-04-03T07:25:56;5.00;99.90
60701;DHT22;46541;49.894;10.886;2023-04-03T07:28:23;5.20;99.90
60701;DHT22;46541;49.894;10.886;2023-04-03T07:31:03;5.20;99.90
60701;DHT22;46541;49.894;10.886;2023-04-03T07:33:30;5.20;99.90
60701;DHT22;46541;49.894;10.886;2023-04-03T07:35:57;5.40;99.90
60701;DHT22;46541;49.894;10.886;2023-04-03T07:38:24;5.40;99.90
60701;DHT22;46541;49.894;10.886;2023-04-03T07:40:52;5.40;99.90
60701;DHT22;46541;49.894;10.886;2023-04-03T07:43:20;5.50;99.90
60701;DHT22;46541;49.894;10.886;2023-04-03T07:45:48;5.40;99.90
60701;DHT22;46541;49.894;10.886;2023-04-03T07:48:19;5.60;99.90
60701;DHT22;46541;49.894;10.886;2023-04-03T07:50:46;5.60;99.90
60701;DHT22;46541;49.894;10.886;2023-04-03T07:53:13;5.70;99.90
60701;DHT22;46541;49.894;10.886;2023-04-03T07:55:41;5.60;99.90
60701;DHT22;46541;49.894;10.886;2023-04-03T07:58:13;5.60;99.90
60701;DHT22;46541;49.894;10.886;2023-04-03T08:00:41;5.70;99.90
60701;DHT22;46541;49.894;10.886;2023-04-03T08:03:10;5.80;99.90
60701;DHT22;46541;49.894;10.886;2023-04-03T08:05:40;6.00;99.90
60701;DHT22;46541;49.894;10.886;2023-04-03T08:08:08;6.20;99.90
60701;DHT22;46541;49.894;10.886;2023-04-03T08:10:34;6.30;99.90
60701;DHT22;46541;49.894;10.886;2023-04-03T08:13:02;6.30;99.90
60701;DHT22;46541;49.894;10.886;2023-04-03T08:15:30;6.10;99.90
60701;DHT22;46541;49.894;10.886;2023-04-03T08:17:58;6.00;99.90
60701;DHT22;46541;49.894;10.886;2023-04-03T08:20:26;5.80;99.90
60701;DHT22;46541;49.894;10.886;2023-04-03T08:22:53;5.40;99.90
60701;DHT22;46541;49.894;10.886;2023-04-03T08:25:20;5.30;99.90
60701;DHT22;46541;49.894;10.886;2023-04-03T08:27:47;5.80;99.90
60701;DHT22;46541;49.894;10.886;2023-04-03T08:30:14;6.00;99.90
60701;DHT22;46541;49.894;10.886;2023-04-03T08:32:41;6.50;99.90
60701;DHT22;46541;49.894;10.886;2023-04-03T08:35:09;7.10;99.90
60701;DHT22;46541;49.894;10.886;2023-04-03T08:37:37;7.90;99.90
60701;DHT22;46541;49.894;10.886;2023-04-03T08:40:07;8.40;97.50
60701;DHT22;46541;49.894;10.886;2023-04-03T08:45:46;9.00;93.60
60701;DHT22;46541;49.894;10.886;2023-04-03T08:48:33;9.20;91.40
60701;DHT22;46541;49.894;10.886;2023-04-03T08:51:04;8.90;89.40
60701;DHT22;46541;49.894;10.886;2023-04-03T08:53:40;8.50;88.00
60701;DHT22;46541;49.894;10.886;2023-04-03T08:56:09;8.60;89.30
60701;DHT22;46541;49.894;10.886;2023-04-03T08:58:52;8.40;90.30
60701;DHT22;46541;49.894;10.886;2023-04-03T09:01:30;8.40;90.20
60701;DHT22;46541;49.894;10.886;2023-04-03T09:04:01;7.90;89.70
60701;DHT22;46541;49.894;10.886;2023-04-03T09:06:31;7.90;88.30
60701;DHT22;46541;49.894;10.886;2023-04-03T09:14:39;8.50;82.90
60701;DHT22;46541;49.894;10.886;2023-04-03T09:22:50;7.40;84.70
60701;DHT22;46541;49.894;10.886;2023-04-03T09:25:25;7.50;86.10
60701;DHT22;46541;49.894;10.886;2023-04-03T09:27:53;7.90;86.10
60701;DHT22;46541;49.894;10.886;2023-04-03T09:30:24;8.10;85.40
60701;DHT22;46541;49.894;10.886;2023-04-03T09:32:53;7.90;83.00
60701;DHT22;46541;49.894;10.886;2023-04-03T09:38:00;8.30;83.60
60701;DHT22;46541;49.894;10.886;2023-04-03T09:40:29;8.40;82.80
60701;DHT22;46541;49.894;10.886;2023-04-03T09:43:40;8.70;82.00
60701;DHT22;46541;49.894;10.886;2023-04-03T09:45:49;8.40;79.40
60701;DHT22;46541;49.894;10.886;2023-04-03T09:48:22;8.70;78.00
60701;DHT22;46541;49.894;10.886;2023-04-03T09:56:17;9.20;71.30
60701;DHT22;46541;49.894;10.886;2023-04-03T10:01:33;8.70;74.90
60701;DHT22;46541;49.894;10.886;2023-04-03T10:06:31;8.20;81.00
60701;DHT22;46541;49.894;10.886;2023-04-03T10:09:06;8.40;79.60
60701;DHT22;46541;49.894;10.886;2023-04-03T10:11:33;8.40;77.80
60701;DHT22;46541;49.894;10.886;2023-04-03T10:14:02;8.10;78.30
60701;DHT22;46541;49.894;10.886;2023-04-03T10:16:46;7.90;78.90
60701;DHT22;46541;49.894;10.886;2023-04-03T10:19:34;7.90;76.80
60701;DHT22;46541;49.894;10.886;2023-04-03T10:22:12;7.80;78.50
60701;DHT22;46541;49.894;10.886;2023-04-03T10:28:00;8.20;77.00
60701;DHT22;46541;49.894;10.886;2023-04-03T10:30:32;8.20;73.00
60701;DHT22;46541;49.894;10.886;2023-04-03T10:33:15;7.90;76.00
60701;DHT22;46541;49.894;10.886;2023-04-03T10:49:00;8.30;71.90
60701;DHT22;46541;49.894;10.886;2023-04-03T10:51:41;8.60;68.60
60701;DHT22;46541;49.894;10.886;2023-04-03T10:54:34;8.80;70.40
60701;DHT22;46541;49.894;10.886;2023-04-03T10:57:12;9.10;69.80
60701;DHT22;46541;49.894;10.886;2023-04-03T10:59:51;9.70;66.70
60701;DHT22;46541;49.894;10.886;2023-04-03T11:02:32;9.90;64.20
60701;DHT22;46541;49.894;10.886;2023-04-03T11:07:45;11.10;57.80
60701;DHT22;46541;49.894;10.886;2023-04-03T11:10:41;10.90;55.00
60701;DHT22;46541;49.894;10.886;2023-04-03T11:13:21;11.10;55.10
60701;DHT22;46541;49.894;10.886;2023-04-03T11:15:51;10.70;56.00
60701;DHT22;46541;49.894;10.886;2023-04-03T11:23:44;11.20;54.00
60701;DHT22;46541;49.894;10.886;2023-04-03T11:26:21;13.10;52.30
60701;DHT22;46541;49.894;10.886;2023-04-03T11:28:58;13.30;49.10
60701;DHT22;46541;49.894;10.886;2023-04-03T11:34:33;14.50;47.20
60701;DHT22;46541;49.894;10.886;2023-04-03T11:37:10;13.70;48.70
60701;DHT22;46541;49.894;10.886;2023-04-03T11:39:39;12.90;50.40
60701;DHT22;46541;49.894;10.886;2023-04-03T11:42:39;12.70;51.30
60701;DHT22;46541;49.894;10.886;2023-04-03T11:47:54;11.60;52.60
60701;DHT22;46541;49.894;10.886;2023-04-03T11:55:46;10.90;52.90
60701;DHT22;46541;49.894;10.886;2023-04-03T11:58:26;10.60;53.40
60701;DHT22;46541;49.894;10.886;2023-04-03T12:00:57;10.30;53.60
60701;DHT22;46541;49.894;10.886;2023-04-03T12:14:03;10.00;56.50
60701;DHT22;46541;49.894;10.886;2023-04-03T12:27:01;9.40;54.20
60701;DHT22;46541;49.894;10.886;2023-04-03T12:32:40;9.40;55.20
60701;DHT22;46541;49.894;10.886;2023-04-03T12:35:26;9.40;54.80
60701;DHT22;46541;49.894;10.886;2023-04-03T12:44:18;9.40;55.80
60701;DHT22;46541;49.894;10.886;2023-04-03T12:46:51;9.40;55.50
60701;DHT22;46541;49.894;10.886;2023-04-03T12:49:39;9.30;55.40
60701;DHT22;46541;49.894;10.886;2023-04-03T12:52:37;9.20;54.80
60701;DHT22;46541;49.894;10.886;2023-04-03T12:55:20;9.20;55.70
60701;DHT22;46541;49.894;10.886;2023-04-03T12:57:47;9.50;57.00
60701;DHT22;46541;49.894;10.886;2023-04-03T13:00:34;9.60;55.90
60701;DHT22;46541;49.894;10.886;2023-04-03T13:03:02;9.40;53.90
60701;DHT22;46541;49.894;10.886;2023-04-03T13:05:31;9.40;54.50
60701;DHT22;46541;49.894;10.886;2023-04-03T13:08:05;9.20;54.00
60701;DHT22;46541;49.894;10.886;2023-04-03T13:10:46;9.30;54.80
60701;DHT22;46541;49.894;10.886;2023-04-03T13:13:15;9.30;55.10
60701;DHT22;46541;49.894;10.886;2023-04-03T13:15:45;9.30;54.80
60701;DHT22;46541;49.894;10.886;2023-04-03T13:20:56;9.30;54.60
60701;DHT22;46541;49.894;10.886;2023-04-03T13:23:23;9.20;55.40
60701;DHT22;46541;49.894;10.886;2023-04-03T13:25:51;9.10;56.70
60701;DHT22;46541;49.894;10.886;2023-04-03T13:28:22;9.10;56.50
60701;DHT22;46541;49.894;10.886;2023-04-03T13:31:05;8.80;56.60
60701;DHT22;46541;49.894;10.886;2023-04-03T13:33:34;8.70;57.90
60701;DHT22;46541;49.894;10.886;2023-04-03T13:36:08;8.70;59.10
60701;DHT22;46541;49.894;10.886;2023-04-03T13:38:37;8.60;57.90
60701;DHT22;46541;49.894;10.886;2023-04-03T13:41:24;8.50;55.60
60701;DHT22;46541;49.894;10.886;2023-04-03T13:43:52;8.40;56.50
60701;DHT22;46541;49.894;10.886;2023-04-03T13:46:27;8.40;56.60
60701;DHT22;46541;49.894;10.886;2023-04-03T13:48:56;8.40;56.60
60701;DHT22;46541;49.894;10.886;2023-04-03T13:53:56;8.40;56.20
60701;DHT22;46541;49.894;10.886;2023-04-03T14:01:42;8.60;57.80
60701;DHT22;46541;49.894;10.886;2023-04-03T14:06:42;8.40;58.10
60701;DHT22;46541;49.894;10.886;2023-04-03T14:09:09;8.30;57.60
60701;DHT22;46541;49.894;10.886;2023-04-03T14:11:36;8.40;58.30
60701;DHT22;46541;49.894;10.886;2023-04-03T14:14:14;8.60;58.70
60701;DHT22;46541;49.894;10.886;2023-04-03T14:16:44;8.60;57.70
60701;DHT22;46541;49.894;10.886;2023-04-03T14:19:19;8.70;58.30
60701;DHT22;46541;49.894;10.886;2023-04-03T14:21:46;8.50;58.30
60701;DHT22;46541;49.894;10.886;2023-04-03T14:24:13;8.50;58.40
60701;DHT22;46541;49.894;10.886;2023-04-03T14:26:40;8.40;58.30
60701;DHT22;46541;49.894;10.886;2023-04-03T14:29:10;8.50;58.90
60701;DHT22;46541;49.894;10.886;2023-04-03T14:31:38;8.70;57.80
60701;DHT22;46541;49.894;10.886;2023-04-03T14:34:05;8.60;58.20
60701;DHT22;46541;49.894;10.886;2023-04-03T14:36:32;8.50;57.80
60701;DHT22;46541;49.894;10.886;2023-04-03T14:38:59;8.40;60.00
60701;DHT22;46541;49.894;10.886;2023-04-03T14:41:27;8.40;57.70
60701;DHT22;46541;49.894;10.886;2023-04-03T14:43:54;8.30;56.90
60701;DHT22;46541;49.894;10.886;2023-04-03T14:46:34;8.20;57.40
60701;DHT22;46541;49.894;10.886;2023-04-03T14:49:26;8.10;57.40
60701;DHT22;46541;49.894;10.886;2023-04-03T14:51:55;8.00;57.60
60701;DHT22;46541;49.894;10.886;2023-04-03T14:54:23;8.10;58.70
60701;DHT22;46541;49.894;10.886;2023-04-03T14:56:55;8.00;58.60
60701;DHT22;46541;49.894;10.886;2023-04-03T14:59:30;8.10;59.90
60701;DHT22;46541;49.894;10.886;2023-04-03T15:01:58;8.20;59.00
60701;DHT22;46541;49.894;10.886;2023-04-03T15:04:25;8.10;58.70
60701;DHT22;46541;49.894;10.886;2023-04-03T15:06:52;8.20;58.70
60701;DHT22;46541;49.894;10.886;2023-04-03T15:09:25;8.20;58.70
60701;DHT22;46541;49.894;10.886;2023-04-03T15:11:53;8.20;58.40
60701;DHT22;46541;49.894;10.886;2023-04-03T15:14:20;8.20;58.80
60701;DHT22;46541;49.894;10.886;2023-04-03T15:17:02;8.20;58.70
60701;DHT22;46541;49.894;10.886;2023-04-03T15:19:40;8.30;59.40
60701;DHT22;46541;49.894;10.886;2023-04-03T15:22:08;8.50;57.60
60701;DHT22;46541;49.894;10.886;2023-04-03T15:24:38;8.50;59.50
60701;DHT22;46541;49.894;10.886;2023-04-03T15:27:06;8.40;58.50
60701;DHT22;46541;49.894;10.886;2023-04-03T15:29:32;8.30;58.50
60701;DHT22;46541;49.894;10.886;2023-04-03T15:31:59;8.20;57.60
60701;DHT22;46541;49.894;10.886;2023-04-03T15:34:27;7.90;58.30
60701;DHT22;46541;49.894;10.886;2023-04-03T15:36:54;7.90;60.10
60701;DHT22;46541;49.894;10.886;2023-04-03T15:39:21;7.90;59.80
60701;DHT22;46541;49.894;10.886;2023-04-03T15:41:49;7.80;59.20
60701;DHT22;46541;49.894;10.886;2023-04-03T15:44:16;7.80;59.60
60701;DHT22;46541;49.894;10.886;2023-04-03T15:46:49;7.80;60.10
60701;DHT22;46541;49.894;10.886;2023-04-03T15:49:21;7.70;58.80
60701;DHT22;46541;49.894;10.886;2023-04-03T15:51:48;7.70;60.10
60701;DHT22;46541;49.894;10.886;2023-04-03T15:54:15;7.70;59.90
60701;DHT22;46541;49.894;10.886;2023-04-03T15:56:42;7.60;58.80
60701;DHT22;46541;49.894;10.886;2023-04-03T15:59:09;7.60;60.30
60701;DHT22;46541;49.894;10.886;2023-04-03T16:01:37;7.60;60.40
60701;DHT22;46541;49.894;10.886;2023-04-03T16:04:07;7.60;61.30
60701;DHT22;46541;49.894;10.886;2023-04-03T16:06:35;7.70;60.90
60701;DHT22;46541;49.894;10.886;2023-04-03T16:09:02;7.70;59.50
60701;DHT22;46541;49.894;10.886;2023-04-03T16:11:30;7.50;60.20
60701;DHT22;46541;49.894;10.886;2023-04-03T16:13:56;7.40;60.30
60701;DHT22;46541;49.894;10.886;2023-04-03T16:16:24;7.30;60.60
60701;DHT22;46541;49.894;10.886;2023-04-03T16:18:54;7.30;60.70
60701;DHT22;46541;49.894;10.886;2023-04-03T16:21:21;7.30;59.20
60701;DHT22;46541;49.894;10.886;2023-04-03T16:23:48;7.30;60.80
60701;DHT22;46541;49.894;10.886;2023-04-03T16:26:16;7.20;59.90
60701;DHT22;46541;49.894;10.886;2023-04-03T16:28:44;7.00;61.50
60701;DHT22;46541;49.894;10.886;2023-04-03T16:31:10;7.00;61.70
60701;DHT22;46541;49.894;10.886;2023-04-03T16:33:37;6.90;60.60
60701;DHT22;46541;49.894;10.886;2023-04-03T16:36:04;6.80;61.90
60701;DHT22;46541;49.894;10.886;2023-04-03T16:38:31;6.80;60.90
60701;DHT22;46541;49.894;10.886;2023-04-03T16:40:58;6.70;61.40
60701;DHT22;46541;49.894;10.886;2023-04-03T16:43:26;6.70;61.10
60701;DHT22;46541;49.894;10.886;2023-04-03T16:45:53;6.70;60.70
60701;DHT22;46541;49.894;10.886;2023-04-03T16:48:20;6.60;61.30
60701;DHT22;46541;49.894;10.886;2023-04-03T16:50:48;6.40;61.30
60701;DHT22;46541;49.894;10.886;2023-04-03T16:53:15;6.50;62.90
60701;DHT22;46541;49.894;10.886;2023-04-03T16:55:42;6.50;63.50
60701;DHT22;46541;49.894;10.886;2023-04-03T16:58:09;6.50;64.00
60701;DHT22;46541;49.894;10.886;2023-04-03T17:00:36;6.50;64.30
60701;DHT22;46541;49.894;10.886;2023-04-03T17:03:03;6.50;64.50
60701;DHT22;46541;49.894;10.886;2023-04-03T17:05:30;6.60;64.30
60701;DHT22;46541;49.894;10.886;2023-04-03T17:07:58;6.60;64.90
60701;DHT22;46541;49.894;10.886;2023-04-03T17:10:25;6.60;65.40
60701;DHT22;46541;49.894;10.886;2023-04-03T17:12:52;6.60;66.10
60701;DHT22;46541;49.894;10.886;2023-04-03T17:15:19;6.60;65.30
60701;DHT22;46541;49.894;10.886;2023-04-03T17:17:51;6.60;63.80
60701;DHT22;46541;49.894;10.886;2023-04-03T17:20:18;6.50;64.90
60701;DHT22;46541;49.894;10.886;2023-04-03T17:22:45;6.50;64.70
60701;DHT22;46541;49.894;10.886;2023-04-03T17:25:12;6.40;64.00
60701;DHT22;46541;49.894;10.886;2023-04-03T17:27:39;6.20;64.60
60701;DHT22;46541;49.894;10.886;2023-04-03T17:30:06;6.20;64.40
60701;DHT22;46541;49.894;10.886;2023-04-03T17:32:33;6.20;64.10
60701;DHT22;46541;49.894;10.886;2023-04-03T17:35:00;6.00;64.40